createdAt,value
2022-08-01T00:00:30.526Z,79.47
2022-08-01T00:03:20.420Z,78.77
2022-08-01T00:06:09.275Z,79.52
2022-08-01T00:08:58.529Z,78.88
2022-08-01T00:11:47.412Z,79.89
2022-08-01T00:14:45.342Z,79.00
2022-08-01T00:17:34.372Z,78.24
2022-08-01T00:20:26.512Z,79.08
2022-08-01T00:23:15.163Z,79.04
2022-08-01T00:25:57.789Z,78.06
2022-08-01T00:28:46.274Z,79.03
2022-08-01T00:31:35.540Z,79.19
2022-08-01T00:34:24.309Z,79.14
2022-08-01T00:37:06.720Z,79.04
2022-08-01T00:39:55.518Z,79.88
2022-08-01T00:42:44.277Z,78.72
2022-08-01T00:45:26.445Z,78.69
2022-08-01T00:48:16.272Z,79.75
2022-08-01T00:50:59.209Z,79.16
2022-08-01T00:53:51.920Z,78.20
2022-08-01T00:56:47.374Z,78.19
2022-08-01T00:59:36.291Z,78.59
2022-08-01T01:02:20.072Z,77.95
2022-08-01T01:05:08.505Z,80.58
2022-08-01T01:07:57.834Z,78.35
2022-08-01T01:11:01.549Z,78.40
2022-08-01T01:14:01.805Z,78.00
2022-08-01T01:16:54.289Z,77.25
2022-08-01T01:19:41.572Z,76.58
2022-08-01T01:23:04.415Z,76.27
2022-08-01T01:25:46.565Z,76.53
2022-08-01T01:28:35.545Z,76.07
2022-08-01T01:31:21.682Z,76.44
2022-08-01T01:34:13.543Z,76.54
2022-08-01T01:36:58.807Z,76.13
2022-08-01T01:39:54.004Z,75.02
2022-08-01T01:42:38.830Z,75.70
2022-08-01T01:45:28.553Z,75.44
2022-08-01T01:48:12.695Z,74.74
2022-08-01T01:51:02.495Z,76.00
2022-08-01T01:53:45.818Z,75.78
2022-08-01T01:56:36.277Z,76.67
2022-08-01T01:59:18.434Z,75.71
2022-08-01T02:02:16.940Z,75.62
2022-08-01T02:05:01.576Z,75.04
2022-08-01T02:07:51.525Z,74.79
2022-08-01T02:10:41.249Z,74.42
2022-08-01T02:13:30.538Z,72.31
2022-08-01T02:16:14.526Z,71.27
2022-08-01T02:19:03.527Z,71.30
2022-08-01T02:21:56.959Z,71.21
2022-08-01T02:24:47.533Z,70.94
2022-08-01T02:27:42.676Z,70.85
2022-08-01T02:30:34.249Z,70.82
2022-08-01T02:33:22.868Z,68.37
2022-08-01T02:36:32.468Z,67.54
2022-08-01T02:39:21.808Z,69.10
2022-08-01T02:42:15.217Z,70.15
2022-08-01T02:44:58.813Z,69.69
2022-08-01T02:47:49.518Z,68.15
2022-08-01T02:50:40.407Z,70.70
2022-08-01T02:53:43.759Z,67.84
2022-08-01T02:56:46.528Z,65.89
2022-08-01T02:59:36.889Z,65.03
2022-08-01T03:02:23.261Z,63.43
2022-08-01T03:05:07.383Z,63.79
2022-08-01T03:08:02.585Z,61.49
2022-08-01T03:10:55.439Z,61.28
2022-08-01T03:13:39.831Z,61.46
2022-08-01T03:16:30.266Z,63.07
2022-08-01T03:19:20.331Z,62.98
2022-08-01T03:22:08.144Z,64.56
2022-08-01T03:25:00.535Z,62.11
2022-08-01T03:27:51.562Z,60.73
2022-08-01T03:30:35.288Z,61.84
2022-08-01T03:33:24.872Z,60.45
2022-08-01T03:36:09.540Z,61.82
2022-08-01T03:39:01.462Z,59.57
2022-08-01T03:41:52.547Z,58.43
2022-08-01T03:44:43.193Z,60.53
2022-08-01T03:47:33.294Z,59.66
2022-08-01T03:50:24.854Z,61.27
2022-08-01T03:53:09.260Z,61.02
2022-08-01T03:55:59.325Z,59.41
2022-08-01T03:58:50.289Z,60.82
2022-08-01T04:01:33.536Z,62.80
2022-08-01T04:04:22.255Z,62.00
2022-08-01T04:07:08.247Z,59.17
2022-08-01T04:09:57.310Z,61.71
2022-08-01T04:12:39.691Z,61.33
2022-08-01T04:15:22.262Z,59.46
2022-08-01T04:18:11.250Z,59.26
2022-08-01T04:20:55.794Z,59.91
2022-08-01T04:23:44.508Z,61.89
2022-08-01T04:26:35.268Z,59.55
2022-08-01T04:29:26.540Z,60.48
2022-08-01T04:32:09.743Z,59.82
2022-08-01T04:35:00.535Z,57.42
2022-08-01T04:37:44.526Z,57.88
2022-08-01T04:40:35.541Z,59.93
2022-08-01T04:43:17.673Z,58.44
2022-08-01T04:46:07.505Z,59.44
2022-08-01T04:48:57.371Z,57.64
2022-08-01T04:51:39.411Z,58.72
2022-08-01T04:54:30.552Z,59.95
2022-08-01T04:57:25.303Z,60.09
2022-08-01T05:00:08.315Z,60.47
2022-08-01T05:02:57.514Z,61.23
2022-08-01T05:05:45.597Z,60.61
2022-08-01T05:08:28.532Z,60.03
2022-08-01T05:11:10.451Z,59.48
2022-08-01T05:14:00.274Z,57.08
2022-08-01T05:16:43.823Z,59.90
2022-08-01T05:19:32.264Z,59.37
2022-08-01T05:22:21.275Z,58.00
2022-08-01T05:25:03.904Z,55.84
2022-08-01T05:27:54.287Z,57.84
2022-08-01T05:30:36.832Z,59.51
2022-08-01T05:33:25.575Z,57.09
2022-08-01T05:36:07.593Z,58.32
2022-08-01T05:38:56.494Z,56.38
2022-08-01T05:41:45.259Z,54.60
2022-08-01T05:44:34.258Z,54.35
2022-08-01T05:47:16.685Z,54.48
2022-08-01T05:50:05.486Z,56.56
2022-08-01T05:52:54.273Z,55.67
2022-08-01T05:55:37.322Z,56.63
2022-08-01T05:58:26.230Z,55.98
2022-08-01T06:01:08.610Z,55.95
2022-08-01T06:03:57.399Z,54.00
2022-08-01T06:06:46.277Z,54.03
2022-08-01T06:09:29.300Z,56.10
2022-08-01T06:12:18.286Z,55.71
2022-08-01T06:15:00.596Z,53.21
2022-08-01T06:17:49.246Z,52.28
2022-08-01T06:20:31.955Z,53.43
2022-08-01T06:23:31.994Z,53.62
2022-08-01T06:26:23.504Z,53.72
2022-08-01T06:29:05.777Z,54.97
2022-08-01T06:31:54.292Z,55.21
2022-08-01T06:34:42.951Z,53.49
2022-08-01T06:37:24.344Z,54.96
2022-08-01T06:40:17.423Z,53.49
2022-08-01T06:42:59.281Z,53.40
2022-08-01T06:45:42.765Z,53.38
2022-08-01T06:48:31.263Z,54.73
2022-08-01T06:51:17.530Z,59.59
2022-08-01T06:54:06.495Z,55.57
2022-08-01T06:57:01.090Z,58.82
2022-08-01T06:59:55.569Z,57.92
2022-08-01T07:02:45.501Z,56.93
2022-08-01T07:05:28.724Z,55.55
2022-08-01T07:08:17.301Z,53.66
2022-08-01T07:11:01.196Z,55.75
2022-08-01T07:13:50.565Z,56.40
2022-08-01T07:16:32.843Z,57.19
2022-08-01T07:19:21.513Z,55.74
2022-08-01T07:22:04.255Z,57.03
2022-08-01T07:24:54.439Z,56.31
2022-08-01T07:27:37.016Z,55.34
2022-08-01T07:30:25.503Z,56.77
2022-08-01T07:33:15.491Z,55.15
2022-08-01T07:36:05.703Z,54.89
2022-08-01T07:38:50.507Z,54.99
2022-08-01T07:42:04.682Z,54.93
2022-08-01T07:44:41.979Z,52.17
2022-08-01T07:47:37.114Z,53.28
2022-08-01T07:50:25.508Z,54.99
2022-08-01T07:53:07.623Z,54.71
2022-08-01T07:55:56.490Z,54.42
2022-08-01T07:58:52.252Z,57.49
2022-08-01T08:01:47.362Z,53.37
2022-08-01T08:04:37.297Z,55.64
2022-08-01T08:07:19.691Z,54.72
2022-08-01T08:10:08.499Z,55.02
2022-08-01T08:12:59.479Z,55.09
2022-08-01T08:15:48.469Z,54.10
2022-08-01T08:18:30.267Z,54.25
2022-08-01T08:21:12.612Z,57.21
2022-08-01T08:24:19.490Z,56.91
2022-08-01T08:27:02.830Z,56.05
2022-08-01T08:29:51.512Z,55.80
2022-08-01T08:32:33.361Z,55.48
2022-08-01T08:35:40.372Z,54.52
2022-08-01T08:38:32.660Z,54.13
2022-08-01T08:41:20.728Z,57.28
2022-08-01T08:44:05.357Z,57.18
2022-08-01T08:47:00.283Z,54.57
2022-08-01T08:49:52.532Z,54.88
2022-08-01T08:52:35.552Z,57.46
2022-08-01T08:55:26.509Z,56.52
2022-08-01T08:58:08.924Z,58.79
2022-08-01T09:00:57.479Z,57.92
2022-08-01T09:03:53.265Z,58.38
2022-08-01T09:06:42.541Z,59.66
2022-08-01T09:09:24.555Z,58.95
2022-08-01T09:12:13.265Z,60.21
2022-08-01T09:15:03.258Z,60.03
2022-08-01T09:17:52.482Z,59.29
2022-08-01T09:20:36.717Z,59.98
2022-08-01T09:23:54.234Z,60.03
2022-08-01T09:26:41.659Z,59.56
2022-08-01T09:29:38.332Z,60.03
2022-08-01T09:32:22.762Z,59.07
2022-08-01T09:35:36.304Z,58.88
2022-08-01T09:38:37.532Z,59.63
2022-08-01T09:41:37.444Z,61.49
2022-08-01T09:44:42.193Z,59.63
2022-08-01T09:47:40.275Z,60.10
2022-08-01T09:50:29.483Z,59.88
2022-08-01T09:53:30.361Z,60.70
2022-08-01T09:56:20.255Z,59.66
2022-08-01T09:59:02.951Z,59.86
2022-08-01T10:02:03.252Z,59.75
2022-08-01T10:05:03.445Z,59.96
2022-08-01T10:08:08.498Z,60.91
2022-08-01T10:11:18.240Z,59.26
2022-08-01T10:14:00.956Z,58.89
2022-08-01T10:17:05.353Z,58.56
2022-08-01T10:19:52.370Z,58.08
2022-08-01T10:22:44.238Z,56.99
2022-08-01T10:25:42.379Z,59.83
2022-08-01T10:28:34.207Z,60.21
2022-08-01T10:31:30.860Z,59.57
2022-08-01T10:34:20.522Z,57.69
2022-08-01T10:37:07.033Z,58.42
2022-08-01T10:40:14.234Z,58.04
2022-08-01T10:43:00.739Z,57.96
2022-08-01T10:45:52.341Z,58.99
2022-08-01T10:48:48.949Z,58.59
2022-08-01T10:51:52.740Z,59.68
2022-08-01T10:54:36.979Z,60.68
2022-08-01T10:57:27.657Z,60.83
2022-08-01T11:00:10.109Z,60.97
2022-08-01T11:03:12.218Z,61.57
2022-08-01T11:06:07.261Z,59.69
2022-08-01T11:09:03.332Z,59.64
2022-08-01T11:12:25.173Z,60.70
2022-08-01T11:15:14.743Z,61.21
2022-08-01T11:17:57.661Z,58.41
2022-08-01T11:21:57.659Z,59.63
2022-08-01T11:24:06.481Z,61.19
2022-08-01T11:27:33.993Z,63.67
2022-08-01T11:30:20.069Z,61.11
2022-08-01T11:33:11.300Z,60.41
2022-08-01T11:36:56.800Z,59.85
2022-08-01T11:39:38.709Z,61.19
2022-08-01T11:42:35.481Z,62.22
2022-08-01T11:45:18.777Z,61.95
2022-08-01T11:48:07.263Z,60.06
2022-08-01T11:50:51.935Z,60.54
2022-08-01T11:53:42.239Z,60.49
2022-08-01T11:56:31.521Z,59.11
2022-08-01T11:59:15.381Z,59.96
2022-08-01T12:02:10.512Z,63.48
2022-08-01T12:04:58.852Z,65.32
2022-08-01T12:07:52.631Z,65.85
2022-08-01T12:10:49.705Z,65.47
2022-08-01T12:13:38.235Z,64.31
2022-08-01T12:16:33.085Z,64.93
2022-08-01T12:19:16.927Z,64.98
2022-08-01T12:22:23.491Z,64.39
2022-08-01T12:25:14.986Z,64.64
2022-08-01T12:28:03.234Z,65.42
2022-08-01T12:30:46.644Z,66.23
2022-08-01T12:33:35.346Z,65.24
2022-08-01T12:36:24.270Z,65.11
2022-08-01T12:39:07.182Z,66.21
2022-08-01T12:41:59.288Z,65.21
2022-08-01T12:44:49.664Z,65.58
2022-08-01T12:47:33.488Z,65.84
2022-08-01T12:50:24.680Z,65.72
2022-08-01T12:53:07.305Z,65.41
2022-08-01T12:56:00.033Z,64.46
2022-08-01T12:58:50.239Z,65.05
2022-08-01T13:01:32.778Z,65.02
2022-08-01T13:04:27.513Z,65.22
2022-08-01T13:07:16.810Z,65.62
2022-08-01T13:10:00.260Z,66.02
2022-08-01T13:12:52.985Z,65.48
2022-08-01T13:15:44.253Z,66.66
2022-08-01T13:18:40.487Z,66.67
2022-08-01T13:21:28.609Z,66.22
2022-08-01T13:24:21.245Z,65.85
2022-08-01T13:27:13.875Z,66.59
2022-08-01T13:30:02.494Z,66.33
2022-08-01T13:32:52.474Z,66.28
2022-08-01T13:35:41.952Z,66.72
2022-08-01T13:38:23.258Z,67.30
2022-08-01T13:41:12.223Z,66.96
2022-08-01T13:43:58.120Z,68.69
2022-08-01T13:46:51.378Z,69.91
2022-08-01T13:49:38.089Z,66.74
2022-08-01T13:52:29.222Z,66.70
2022-08-01T13:55:11.549Z,66.24
2022-08-01T13:58:00.230Z,66.29
2022-08-01T14:00:42.835Z,68.72
2022-08-01T14:03:38.254Z,68.04
2022-08-01T14:06:28.624Z,68.28
2022-08-01T14:09:18.146Z,67.89
2022-08-01T14:12:12.217Z,68.37
2022-08-01T14:14:58.310Z,68.84
2022-08-01T14:17:48.098Z,69.05
2022-08-01T14:20:30.927Z,69.89
2022-08-01T14:23:19.501Z,71.11
2022-08-01T14:26:09.821Z,70.49
2022-08-01T14:29:01.211Z,70.84
2022-08-01T14:31:50.476Z,70.26
2022-08-01T14:34:39.281Z,70.49
2022-08-01T14:37:21.813Z,69.87
2022-08-01T14:40:14.242Z,70.64
2022-08-01T14:43:25.157Z,71.64
2022-08-01T14:46:11.804Z,71.05
2022-08-01T14:49:00.349Z,71.31
2022-08-01T14:51:42.813Z,70.84
2022-08-01T14:54:31.474Z,70.36
2022-08-01T14:57:20.239Z,70.41
2022-08-01T15:00:09.472Z,70.72
2022-08-01T15:02:51.596Z,71.95
2022-08-01T15:05:46.219Z,72.29
2022-08-01T15:08:28.924Z,72.14
2022-08-01T15:11:23.875Z,72.72
2022-08-01T15:14:24.627Z,72.46
2022-08-01T15:17:13.475Z,72.41
2022-08-01T15:19:57.447Z,72.98
2022-08-01T15:22:48.081Z,72.55
2022-08-01T15:25:40.911Z,71.71
2022-08-01T15:28:25.151Z,71.04
2022-08-01T15:31:14.784Z,70.72
2022-08-01T15:33:56.491Z,70.33
2022-08-01T15:36:45.227Z,70.48
2022-08-01T15:39:30.940Z,70.51
2022-08-01T15:42:27.044Z,70.84
2022-08-01T15:45:20.757Z,70.79
2022-08-01T15:48:18.279Z,70.16
2022-08-01T15:51:00.801Z,70.16
2022-08-01T15:53:51.293Z,71.34
2022-08-01T15:56:40.464Z,71.64
2022-08-01T15:59:22.961Z,70.37
2022-08-01T16:02:12.517Z,70.67
2022-08-01T16:05:07.505Z,70.96
2022-08-01T16:08:01.213Z,71.90
2022-08-01T16:10:43.236Z,71.44
2022-08-01T16:13:31.713Z,70.90
2022-08-01T16:16:16.233Z,71.03
2022-08-01T16:19:05.287Z,70.48
2022-08-01T16:21:49.237Z,70.67
2022-08-01T16:24:38.234Z,71.59
2022-08-01T16:27:23.296Z,71.38
2022-08-01T16:30:15.217Z,71.31
2022-08-01T16:32:59.893Z,71.62
2022-08-01T16:35:54.471Z,71.34
2022-08-01T16:38:43.486Z,73.18
2022-08-01T16:41:32.647Z,71.87
2022-08-01T16:44:33.117Z,71.52
2022-08-01T16:47:22.500Z,71.99
2022-08-01T16:50:12.471Z,71.82
2022-08-01T16:52:54.824Z,71.61
2022-08-01T16:55:49.339Z,72.27
2022-08-01T16:58:32.676Z,71.98
2022-08-01T17:01:58.605Z,71.92
2022-08-01T17:04:30.559Z,72.12
2022-08-01T17:07:26.338Z,72.18
2022-08-01T17:10:18.486Z,72.45
2022-08-01T17:13:07.236Z,72.54
2022-08-01T17:15:59.215Z,73.98
2022-08-01T17:18:41.985Z,73.26
2022-08-01T17:21:30.470Z,72.08
2022-08-01T17:24:16.432Z,72.28
2022-08-01T17:27:08.159Z,72.20
2022-08-01T17:29:52.889Z,74.16
2022-08-01T17:32:44.230Z,74.70
2022-08-01T17:35:33.212Z,74.06
2022-08-01T17:38:15.701Z,73.55
2022-08-01T17:41:05.470Z,73.32
2022-08-01T17:43:54.476Z,73.94
2022-08-01T17:46:36.659Z,74.89
2022-08-01T17:49:52.139Z,74.97
2022-08-01T17:52:29.535Z,74.71
2022-08-01T17:55:56.078Z,74.85
2022-08-01T17:58:49.081Z,75.09
2022-08-01T18:01:30.118Z,75.34
2022-08-01T18:04:28.476Z,75.57
2022-08-01T18:08:01.357Z,75.74
2022-08-01T18:10:40.299Z,76.27
2022-08-01T18:13:30.476Z,75.90
2022-08-01T18:16:14.594Z,75.95
2022-08-01T18:19:03.512Z,75.76
2022-08-01T18:21:52.239Z,76.06
2022-08-01T18:24:35.458Z,75.87
2022-08-01T18:27:24.451Z,75.94
2022-08-01T18:30:26.617Z,76.10
2022-08-01T18:33:15.642Z,76.34
2022-08-01T18:36:05.473Z,75.90
2022-08-01T18:38:47.875Z,76.33
2022-08-01T18:41:36.813Z,76.43
2022-08-01T18:44:19.190Z,76.08
2022-08-01T18:47:08.415Z,76.46
2022-08-01T18:49:57.953Z,76.05
2022-08-01T18:52:46.460Z,75.85
2022-08-01T18:55:35.482Z,76.54
2022-08-01T18:58:17.501Z,75.64
2022-08-01T19:01:06.338Z,76.07
2022-08-01T19:08:31.225Z,76.30
2022-08-01T19:11:20.470Z,76.20
2022-08-01T19:14:10.494Z,76.95
2022-08-01T19:16:52.669Z,77.11
2022-08-01T19:19:42.448Z,76.22
2022-08-01T19:22:24.814Z,76.94
2022-08-01T19:25:13.208Z,76.86
2022-08-01T19:27:59.834Z,76.97
2022-08-01T19:30:53.503Z,77.36
2022-08-01T19:33:40.583Z,76.12
2022-08-01T19:36:34.485Z,76.18
2022-08-01T19:39:19.019Z,75.85
2022-08-01T19:42:13.232Z,76.00
2022-08-01T19:44:56.814Z,76.02
2022-08-01T19:47:51.558Z,76.49
2022-08-01T19:50:42.853Z,76.02
2022-08-01T19:53:32.482Z,75.79
2022-08-01T19:56:22.238Z,76.23
2022-08-01T19:59:05.458Z,76.56
2022-08-01T20:01:55.222Z,75.05
2022-08-01T20:04:38.110Z,75.68
2022-08-01T20:07:27.264Z,75.79
2022-08-01T20:10:23.329Z,75.54
2022-08-01T20:13:19.221Z,75.17
2022-08-01T20:16:04.292Z,76.31
2022-08-01T20:18:54.255Z,76.62
2022-08-01T20:21:37.751Z,76.24
2022-08-01T20:24:30.202Z,76.07
2022-08-01T20:27:23.472Z,76.35
2022-08-01T20:30:07.484Z,76.71
2022-08-01T20:32:58.122Z,76.01
2022-08-01T20:35:53.561Z,75.87
2022-08-01T20:38:42.767Z,76.33
2022-08-01T20:41:26.268Z,76.04
2022-08-01T20:44:16.642Z,76.98
2022-08-01T20:47:00.490Z,77.03
2022-08-01T20:49:50.782Z,76.91
2022-08-01T20:52:32.245Z,77.07
2022-08-01T20:55:20.518Z,77.13
2022-08-01T20:58:04.200Z,77.49
2022-08-01T21:00:55.538Z,78.11
2022-08-01T21:03:51.470Z,77.80
2022-08-01T21:06:46.224Z,77.56
2022-08-01T21:09:36.865Z,77.70
2022-08-01T21:12:59.324Z,77.80
2022-08-01T21:16:23.176Z,77.89
2022-08-01T21:19:28.759Z,77.91
2022-08-01T21:22:27.250Z,78.29
2022-08-01T21:25:20.498Z,77.78
2022-08-01T21:28:03.212Z,77.89
2022-08-01T21:30:53.851Z,78.16
2022-08-01T21:33:38.215Z,78.44
2022-08-01T21:36:53.227Z,78.34
2022-08-01T21:39:36.449Z,78.07
2022-08-01T21:42:24.580Z,78.65
2022-08-01T21:45:09.481Z,77.97
2022-08-01T21:47:53.333Z,78.09
2022-08-01T21:50:46.212Z,78.61
2022-08-01T21:53:43.455Z,78.52
2022-08-01T21:56:58.465Z,78.54
2022-08-01T22:00:01.570Z,78.72
2022-08-01T22:02:55.469Z,78.20
2022-08-01T22:05:50.904Z,78.57
2022-08-01T22:08:46.453Z,78.58
2022-08-01T22:11:31.408Z,78.50
2022-08-01T22:14:24.193Z,78.72
2022-08-01T22:17:06.438Z,79.15
2022-08-01T22:19:56.222Z,79.16
2022-08-01T22:22:52.222Z,78.75
2022-08-01T22:25:36.783Z,79.82
2022-08-01T22:28:26.216Z,78.92
2022-08-01T22:31:08.592Z,78.23
2022-08-01T22:33:57.194Z,78.71
2022-08-01T22:36:46.226Z,79.14
2022-08-01T22:39:39.778Z,79.31
2022-08-01T22:42:22.270Z,79.16
2022-08-01T22:45:40.051Z,79.45
2022-08-01T22:48:34.876Z,78.60
2022-08-01T22:51:27.857Z,79.08
2022-08-01T22:54:26.202Z,78.96
2022-08-01T22:57:37.298Z,78.93
2022-08-01T23:00:27.203Z,79.66
2022-08-01T23:03:34.769Z,79.19
2022-08-01T23:06:26.466Z,79.51
2022-08-01T23:09:09.735Z,78.88
2022-08-01T23:12:00.221Z,79.58
2022-08-01T23:14:56.354Z,79.73
2022-08-01T23:17:46.217Z,79.17
2022-08-01T23:20:29.520Z,79.39
2022-08-01T23:23:18.238Z,79.55
2022-08-01T23:26:15.468Z,79.24
2022-08-01T23:29:06.215Z,79.42
2022-08-01T23:32:03.048Z,79.39
2022-08-01T23:34:54.713Z,79.14
2022-08-01T23:37:37.215Z,79.93
2022-08-01T23:40:26.532Z,79.76
2022-08-01T23:43:16.652Z,79.45
2022-08-01T23:46:03.746Z,80.16
2022-08-01T23:48:54.472Z,80.40
2022-08-01T23:51:43.229Z,80.28
2022-08-01T23:54:25.762Z,80.02
2022-08-01T23:57:14.448Z,80.38
2022-08-01T23:59:58.515Z,80.65
